Time;durP1;ratioP1;P1;durP2;ratioP2;P2;SDS_P1;SDS_P2;PMS_P1;PMS_P2;Temp;Humidity;BMP_temperature;BMP_pressure;BME280_temperature;BME280_humidity;BME280_pressure;Samples;Min_cycle;Max_cycle;Signal;HPM_P1;HPM_P2
2022/04/09 00:00:22;;;;;;;5.50;2.65;;;;;;;;;;1729738;83;21048;-71
2022/04/09 00:02:50;;;;;;;4.35;2.60;;;;;;;;;;1729877;81;21100;-71
2022/04/09 00:05:16;;;;;;;5.53;3.00;;;;;;;;;;1729784;82;21013;-71
2022/04/09 00:07:43;;;;;;;5.33;2.92;;;;;;;;;;1729737;82;21552;-71
2022/04/09 00:10:10;;;;;;;6.53;2.72;;;;;;;;;;1729820;83;21100;-71
2022/04/09 00:12:37;;;;;;;4.22;2.62;;;;;;;;;;1729537;82;21096;-71
2022/04/09 00:15:05;;;;;;;4.92;2.70;;;;;;;;;;1729816;83;21040;-71
2022/04/09 00:17:39;;;;;;;4.55;2.50;;;;;;;;;;1729469;82;21576;-71
2022/04/09 00:20:06;;;;;;;5.85;2.40;;;;;;;;;;1729753;83;21045;-71
2022/04/09 00:22:34;;;;;;;4.50;2.27;;;;;;;;;;1729427;82;21592;-70
2022/04/09 00:25:04;;;;;;;3.65;2.45;;;;;;;;;;1729727;83;21022;-70
2022/04/09 00:27:30;;;;;;;4.20;2.17;;;;;;;;;;1729769;83;21017;-70
2022/04/09 00:29:57;;;;;;;4.70;2.70;;;;;;;;;;1729546;83;21068;-70
2022/04/09 00:32:24;;;;;;;5.30;2.50;;;;;;;;;;1729595;83;21030;-70
2022/04/09 00:34:50;;;;;;;5.08;2.80;;;;;;;;;;1729539;82;21017;-70
2022/04/09 00:37:17;;;;;;;4.33;2.58;;;;;;;;;;1729632;82;21053;-71
2022/04/09 00:39:43;;;;;;;4.60;2.72;;;;;;;;;;1729480;83;21536;-72
2022/04/09 00:42:12;;;;;;;5.55;2.42;;;;;;;;;;1729752;83;21072;-71
2022/04/09 00:44:38;;;;;;;3.92;2.42;;;;;;;;;;1729708;82;21013;-71
2022/04/09 00:47:05;;;;;;;4.15;2.58;;;;;;;;;;1729560;82;21048;-71
2022/04/09 00:49:32;;;;;;;4.12;2.75;;;;;;;;;;1729637;82;21111;-70
2022/04/09 00:51:59;;;;;;;4.75;2.77;;;;;;;;;;1729500;82;21057;-70
2022/04/09 00:54:25;;;;;;;6.92;2.65;;;;;;;;;;1729663;83;21036;-71
2022/04/09 00:56:52;;;;;;;4.62;3.10;;;;;;;;;;1729639;82;21072;-72
2022/04/09 00:59:21;;;;;;;5.20;2.90;;;;;;;;;;1729639;82;21116;-72
2022/04/09 01:04:44;;;;;;;6.50;2.90;;;;;;;;;;1715307;80;21195;-72
2022/04/09 01:07:12;;;;;;;4.22;2.80;;;;;;;;;;1720949;83;21390;-71
2022/04/09 01:09:38;;;;;;;6.25;3.50;;;;;;;;;;1725782;83;21594;-71
2022/04/09 01:12:06;;;;;;;5.53;2.87;;;;;;;;;;1725703;83;21575;-70
2022/04/09 01:14:34;;;;;;;4.87;2.50;;;;;;;;;;1725688;83;21084;-71
2022/04/09 01:17:01;;;;;;;5.10;2.40;;;;;;;;;;1703731;83;21067;-71
2022/04/09 01:19:28;;;;;;;5.83;3.30;;;;;;;;;;1725841;83;21562;-71
2022/04/09 01:21:59;;;;;;;3.30;2.50;;;;;;;;;;1725716;83;21048;-70
2022/04/09 01:24:25;;;;;;;3.58;2.45;;;;;;;;;;1725792;83;21019;-70
2022/04/09 01:26:54;;;;;;;3.70;2.50;;;;;;;;;;1725676;83;21052;-71
2022/04/09 01:29:23;;;;;;;5.12;2.67;;;;;;;;;;1725278;83;21085;-70
2022/04/09 01:31:50;;;;;;;4.30;2.47;;;;;;;;;;1725831;83;21056;-71
2022/04/09 01:34:16;;;;;;;4.60;2.70;;;;;;;;;;1725602;83;21099;-71
2022/04/09 01:36:43;;;;;;;4.50;2.70;;;;;;;;;;1725576;83;21044;-71
2022/04/09 01:39:11;;;;;;;5.35;2.67;;;;;;;;;;1725713;83;21032;-71
2022/04/09 01:44:08;;;;;;;5.47;2.60;;;;;;;;;;1802012;79;22872;-72
2022/04/09 01:46:35;;;;;;;4.92;2.47;;;;;;;;;;1761564;81;20993;-71
2022/04/09 01:49:04;;;;;;;5.12;2.60;;;;;;;;;;1761632;81;21088;-71
2022/04/09 01:51:31;;;;;;;6.00;2.80;;;;;;;;;;1761555;81;21551;-72
2022/04/09 01:53:59;;;;;;;5.67;2.47;;;;;;;;;;1761711;81;21009;-71
2022/04/09 01:56:26;;;;;;;4.83;2.70;;;;;;;;;;1761797;81;21104;-71
2022/04/09 01:58:52;;;;;;;5.00;2.70;;;;;;;;;;1761582;81;21096;-71
2022/04/09 02:01:21;;;;;;;5.45;2.77;;;;;;;;;;1761391;81;21108;-71
2022/04/09 02:03:49;;;;;;;5.25;2.70;;;;;;;;;;1747817;81;21127;-70
2022/04/09 02:06:15;;;;;;;7.12;3.12;;;;;;;;;;1727971;83;21074;-71
2022/04/09 02:08:42;;;;;;;6.15;3.45;;;;;;;;;;1728321;83;21052;-70
2022/04/09 02:11:10;;;;;;;5.15;2.87;;;;;;;;;;1728012;83;21068;-71
2022/04/09 02:13:39;;;;;;;4.58;3.17;;;;;;;;;;1728004;83;21127;-71
2022/04/09 02:16:05;;;;;;;4.20;2.80;;;;;;;;;;1728285;83;21072;-70
2022/04/09 02:18:33;;;;;;;4.65;2.95;;;;;;;;;;1728071;83;21591;-71
2022/04/09 02:21:01;;;;;;;6.05;3.17;;;;;;;;;;1728039;83;21016;-71
2022/04/09 02:23:28;;;;;;;4.22;2.77;;;;;;;;;;1727957;83;21031;-71
2022/04/09 02:25:55;;;;;;;4.05;2.75;;;;;;;;;;1728198;83;21047;-71
2022/04/09 02:28:22;;;;;;;5.45;2.30;;;;;;;;;;1728415;83;21052;-70
2022/04/09 02:30:50;;;;;;;5.17;2.85;;;;;;;;;;1728191;83;21063;-71
2022/04/09 02:33:18;;;;;;;5.42;2.80;;;;;;;;;;1726475;83;21098;-71
2022/04/09 02:35:45;;;;;;;5.65;2.80;;;;;;;;;;1727989;83;21067;-70
2022/04/09 02:38:13;;;;;;;3.98;2.60;;;;;;;;;;1728358;83;21040;-71
2022/04/09 02:40:39;;;;;;;3.80;2.40;;;;;;;;;;1728166;83;21071;-71
2022/04/09 02:43:06;;;;;;;4.15;2.72;;;;;;;;;;1724548;83;21103;-71
2022/04/09 02:45:35;;;;;;;4.50;2.98;;;;;;;;;;1720227;83;21067;-71
2022/04/09 02:48:04;;;;;;;4.55;2.75;;;;;;;;;;1720726;83;21136;-70
2022/04/09 02:50:33;;;;;;;3.75;2.37;;;;;;;;;;1720384;83;21181;-72
2022/04/09 02:53:00;;;;;;;3.37;2.70;;;;;;;;;;1720569;83;21168;-71
2022/04/09 02:55:27;;;;;;;5.12;2.95;;;;;;;;;;1719966;83;21483;-71
2022/04/09 02:57:54;;;;;;;8.35;2.90;;;;;;;;;;1720198;83;21075;-71
2022/04/09 03:00:22;;;;;;;3.50;2.35;;;;;;;;;;1719785;83;21114;-71
2022/04/09 03:02:49;;;;;;;3.98;2.72;;;;;;;;;;1720150;82;21062;-71
2022/04/09 03:05:17;;;;;;;5.72;2.90;;;;;;;;;;1719300;83;21594;-71
2022/04/09 03:07:44;;;;;;;4.70;2.90;;;;;;;;;;1719938;83;21005;-72
2022/04/09 03:10:10;;;;;;;6.12;2.92;;;;;;;;;;1719690;83;21063;-71
2022/04/09 03:12:45;;;;;;;5.37;2.70;;;;;;;;;;1719976;83;21488;-71
2022/04/09 03:15:13;;;;;;;4.80;2.47;;;;;;;;;;1719776;83;21496;-71
2022/04/09 03:17:40;;;;;;;3.75;2.40;;;;;;;;;;1720136;83;21048;-71
2022/04/09 03:20:08;;;;;;;6.45;3.20;;;;;;;;;;1719712;83;21071;-71
2022/04/09 03:22:35;;;;;;;6.10;3.37;;;;;;;;;;1720022;83;21043;-72
2022/04/09 03:25:03;;;;;;;4.35;3.05;;;;;;;;;;1719887;83;21024;-71
2022/04/09 03:27:30;;;;;;;5.33;3.55;;;;;;;;;;1720278;83;21044;-71
2022/04/09 03:29:57;;;;;;;4.35;2.95;;;;;;;;;;1719942;83;21038;-71
2022/04/09 03:32:25;;;;;;;5.00;3.22;;;;;;;;;;1719841;83;21056;-71
2022/04/09 03:34:53;;;;;;;5.75;3.15;;;;;;;;;;1720005;83;21068;-70
2022/04/09 03:37:20;;;;;;;5.50;3.47;;;;;;;;;;1719731;83;21115;-71
2022/04/09 03:39:47;;;;;;;4.55;2.77;;;;;;;;;;1719690;83;21052;-71
2022/04/09 03:42:14;;;;;;;5.85;3.05;;;;;;;;;;1719811;83;21496;-69
2022/04/09 03:44:40;;;;;;;5.47;2.85;;;;;;;;;;1712261;83;21564;-71
2022/04/09 03:47:07;;;;;;;5.30;2.90;;;;;;;;;;1712264;84;20990;-72
2022/04/09 03:49:37;;;;;;;7.35;3.08;;;;;;;;;;1712250;84;21524;-71
2022/04/09 03:52:04;;;;;;;5.47;2.90;;;;;;;;;;1712376;84;21103;-71
2022/04/09 03:54:32;;;;;;;4.87;2.52;;;;;;;;;;1712080;83;21092;-71
2022/04/09 03:56:58;;;;;;;4.92;2.83;;;;;;;;;;1711974;83;21560;-71
2022/04/09 03:59:27;;;;;;;4.25;2.70;;;;;;;;;;1710823;83;21072;-71
2022/04/09 04:01:54;;;;;;;5.03;2.90;;;;;;;;;;1712052;84;21501;-71
2022/04/09 04:04:21;;;;;;;5.37;3.00;;;;;;;;;;1712051;82;21048;-71
2022/04/09 04:06:48;;;;;;;7.33;3.00;;;;;;;;;;1712147;84;21060;-71
2022/04/09 04:09:17;;;;;;;5.00;3.02;;;;;;;;;;1712187;83;21116;-71
2022/04/09 04:11:46;;;;;;;4.55;2.87;;;;;;;;;;1712162;83;21080;-70
2022/04/09 04:14:13;;;;;;;5.25;3.00;;;;;;;;;;1712025;84;21024;-70
2022/04/09 04:16:40;;;;;;;4.22;2.80;;;;;;;;;;1712161;83;21033;-71
2022/04/09 04:19:06;;;;;;;4.92;2.60;;;;;;;;;;1712434;83;21064;-71
2022/04/09 04:21:33;;;;;;;3.67;2.42;;;;;;;;;;1712309;84;21036;-71
2022/04/09 04:24:01;;;;;;;4.70;2.80;;;;;;;;;;1711940;84;21057;-70
2022/04/09 04:26:29;;;;;;;4.90;2.52;;;;;;;;;;1712106;84;21084;-71
2022/04/09 04:28:57;;;;;;;5.33;2.75;;;;;;;;;;1712163;84;21555;-71
2022/04/09 04:31:24;;;;;;;4.17;2.60;;;;;;;;;;1712281;84;21092;-71
2022/04/09 04:33:53;;;;;;;5.37;3.30;;;;;;;;;;1712154;83;21041;-71
2022/04/09 04:36:20;;;;;;;5.53;3.25;;;;;;;;;;1712101;84;21200;-70
2022/04/09 04:38:47;;;;;;;6.10;3.27;;;;;;;;;;1712138;84;21028;-70
2022/04/09 04:41:14;;;;;;;5.00;2.98;;;;;;;;;;1712076;84;21072;-72
2022/04/09 04:43:41;;;;;;;4.83;3.15;;;;;;;;;;1712238;83;21060;-71
2022/04/09 04:46:08;;;;;;;5.05;2.92;;;;;;;;;;1712044;84;21056;-71
2022/04/09 04:48:35;;;;;;;7.30;3.05;;;;;;;;;;1712391;83;21013;-71
2022/04/09 04:51:03;;;;;;;4.47;2.98;;;;;;;;;;1712138;84;21065;-71
2022/04/09 04:53:31;;;;;;;4.62;3.08;;;;;;;;;;1712535;84;21075;-72
2022/04/09 04:55:58;;;;;;;5.55;3.12;;;;;;;;;;1712161;84;21558;-71
2022/04/09 04:58:26;;;;;;;6.90;3.52;;;;;;;;;;1711933;83;21079;-71
2022/04/09 05:00:54;;;;;;;4.60;3.00;;;;;;;;;;1711645;84;21071;-71
2022/04/09 05:03:21;;;;;;;5.05;2.95;;;;;;;;;;1712231;82;21094;-71
2022/04/09 05:05:49;;;;;;;4.47;3.02;;;;;;;;;;1710701;83;21064;-71
2022/04/09 05:08:16;;;;;;;4.67;2.95;;;;;;;;;;1712280;83;21041;-71
2022/04/09 05:10:44;;;;;;;4.80;2.95;;;;;;;;;;1712050;83;21126;-71
2022/04/09 05:13:11;;;;;;;5.12;2.67;;;;;;;;;;1712064;83;21020;-71
2022/04/09 05:15:38;;;;;;;5.62;3.55;;;;;;;;;;1712173;83;21136;-71
2022/04/09 05:18:05;;;;;;;3.70;2.50;;;;;;;;;;1712030;83;21583;-71
2022/04/09 05:20:32;;;;;;;5.25;3.10;;;;;;;;;;1712278;83;21039;-71
2022/04/09 05:23:02;;;;;;;4.17;2.72;;;;;;;;;;1712123;84;21076;-71
2022/04/09 05:25:31;;;;;;;4.53;2.58;;;;;;;;;;1712153;84;21522;-71
2022/04/09 05:27:59;;;;;;;4.03;2.70;;;;;;;;;;1712162;83;21520;-71
2022/04/09 05:30:28;;;;;;;5.55;4.05;;;;;;;;;;1711615;84;21048;-71
2022/04/09 05:32:54;;;;;;;5.62;3.00;;;;;;;;;;1712269;84;21053;-71
2022/04/09 05:35:21;;;;;;;4.37;2.55;;;;;;;;;;1711976;83;21064;-71
2022/04/09 05:37:51;;;;;;;3.92;2.52;;;;;;;;;;1712152;83;21563;-70
2022/04/09 05:40:20;;;;;;;3.75;2.50;;;;;;;;;;1712193;84;21076;-70
2022/04/09 05:42:48;;;;;;;5.00;2.33;;;;;;;;;;1712194;83;21093;-70
2022/04/09 05:45:15;;;;;;;4.03;2.47;;;;;;;;;;1712286;84;21009;-72
2022/04/09 05:47:44;;;;;;;4.35;2.50;;;;;;;;;;1712377;83;21044;-71
2022/04/09 05:50:13;;;;;;;4.62;2.50;;;;;;;;;;1712224;83;21084;-71
2022/04/09 05:52:40;;;;;;;3.85;2.67;;;;;;;;;;1712425;84;21016;-71
2022/04/09 05:55:08;;;;;;;5.42;2.77;;;;;;;;;;1712346;84;21040;-71
2022/04/09 05:57:36;;;;;;;4.85;2.60;;;;;;;;;;1712218;83;21053;-71
2022/04/09 06:00:05;;;;;;;5.70;3.10;;;;;;;;;;1712183;84;21508;-71
2022/04/09 06:02:34;;;;;;;4.25;2.80;;;;;;;;;;1710814;83;21081;-71
2022/04/09 06:05:02;;;;;;;4.17;2.67;;;;;;;;;;1711946;82;21060;-71
2022/04/09 06:07:30;;;;;;;5.85;2.92;;;;;;;;;;1712322;84;21091;-71
2022/04/09 06:09:59;;;;;;;5.08;2.70;;;;;;;;;;1711280;84;21071;-71
2022/04/09 06:12:25;;;;;;;4.03;2.72;;;;;;;;;;1712291;83;21048;-72
2022/04/09 06:14:56;;;;;;;6.67;2.90;;;;;;;;;;1711499;84;21540;-71
2022/04/09 06:17:26;;;;;;;5.33;2.75;;;;;;;;;;1712213;84;21539;-71
2022/04/09 06:19:53;;;;;;;4.67;2.60;;;;;;;;;;1712150;84;21537;-71
2022/04/09 06:22:21;;;;;;;4.30;3.00;;;;;;;;;;1712034;84;21075;-72
2022/04/09 06:24:49;;;;;;;4.40;2.60;;;;;;;;;;1712080;83;21120;-71
2022/04/09 06:27:16;;;;;;;5.42;2.92;;;;;;;;;;1712054;84;21041;-71
2022/04/09 06:29:44;;;;;;;4.17;2.52;;;;;;;;;;1711957;84;21567;-71
2022/04/09 06:32:11;;;;;;;4.78;2.72;;;;;;;;;;1712107;84;21072;-71
2022/04/09 06:34:39;;;;;;;5.17;2.87;;;;;;;;;;1690711;84;21028;-71
2022/04/09 06:37:07;;;;;;;4.60;3.00;;;;;;;;;;1712350;84;21532;-71
2022/04/09 06:39:34;;;;;;;4.25;2.52;;;;;;;;;;1712293;84;21028;-71
2022/04/09 06:42:01;;;;;;;4.17;2.42;;;;;;;;;;1712300;84;21452;-71
2022/04/09 06:44:32;;;;;;;3.70;2.45;;;;;;;;;;1714186;83;21080;-71
2022/04/09 06:47:00;;;;;;;4.25;2.60;;;;;;;;;;1718096;83;21068;-72
2022/04/09 06:49:38;;;;;;;4.17;2.30;;;;;;;;;;1719391;83;21040;-71
2022/04/09 06:52:10;;;;;;;4.62;2.90;;;;;;;;;;1719873;83;21024;-71
2022/04/09 06:54:42;;;;;;;3.47;2.30;;;;;;;;;;1718676;83;21048;-71
2022/04/09 06:57:09;;;;;;;5.50;2.75;;;;;;;;;;1720079;83;21009;-71
2022/04/09 06:59:37;;;;;;;4.12;2.37;;;;;;;;;;1719572;83;21052;-71
2022/04/09 07:02:04;;;;;;;4.00;2.70;;;;;;;;;;1719738;83;21063;-72
2022/04/09 07:04:32;;;;;;;3.67;2.72;;;;;;;;;;1719962;82;21087;-72
2022/04/09 07:06:59;;;;;;;4.45;3.00;;;;;;;;;;1719929;83;21429;-71
2022/04/09 07:09:27;;;;;;;5.17;2.85;;;;;;;;;;1719932;83;21047;-70
2022/04/09 07:11:53;;;;;;;5.17;2.50;;;;;;;;;;1719628;83;21059;-71
2022/04/09 07:14:20;;;;;;;4.40;2.62;;;;;;;;;;1720052;83;21104;-71
2022/04/09 07:16:48;;;;;;;3.67;2.22;;;;;;;;;;1719900;83;21051;-71
2022/04/09 07:19:15;;;;;;;4.10;2.20;;;;;;;;;;1720123;83;21060;-71
2022/04/09 07:21:41;;;;;;;4.17;2.40;;;;;;;;;;1719915;83;21053;-71
2022/04/09 07:24:09;;;;;;;3.52;2.02;;;;;;;;;;1720037;83;21064;-71
2022/04/09 07:26:35;;;;;;;4.78;2.20;;;;;;;;;;1719674;83;21087;-71
2022/04/09 07:29:01;;;;;;;4.17;2.20;;;;;;;;;;1720170;83;21066;-70
2022/04/09 07:31:28;;;;;;;3.00;1.85;;;;;;;;;;1719670;83;21993;-71
2022/04/09 07:33:54;;;;;;;2.65;1.98;;;;;;;;;;1720128;83;21540;-71
2022/04/09 07:36:20;;;;;;;3.75;2.20;;;;;;;;;;1719856;83;21539;-72
2022/04/09 07:38:47;;;;;;;3.22;2.12;;;;;;;;;;1719832;83;21535;-73
2022/04/09 07:41:15;;;;;;;3.25;1.80;;;;;;;;;;1719940;83;21075;-71
2022/04/09 07:43:43;;;;;;;2.90;2.08;;;;;;;;;;1719617;83;22238;-71
2022/04/09 07:46:09;;;;;;;2.77;1.80;;;;;;;;;;1719753;83;21508;-71
2022/04/09 07:48:35;;;;;;;2.30;1.55;;;;;;;;;;1720006;83;21068;-71
2022/04/09 07:51:03;;;;;;;3.42;2.00;;;;;;;;;;1719969;83;21107;-69
2022/04/09 07:53:29;;;;;;;5.25;3.25;;;;;;;;;;1719816;83;21004;-71
2022/04/09 07:55:56;;;;;;;3.10;2.17;;;;;;;;;;1719814;83;22071;-71
2022/04/09 07:58:23;;;;;;;3.45;1.70;;;;;;;;;;1719814;83;21064;-71
2022/04/09 08:00:50;;;;;;;4.30;2.10;;;;;;;;;;1719877;83;21004;-71
2022/04/09 08:03:17;;;;;;;3.70;2.10;;;;;;;;;;1719666;82;21155;-71
2022/04/09 08:05:45;;;;;;;2.95;2.02;;;;;;;;;;1720131;83;21552;-70
2022/04/09 08:08:15;;;;;;;3.70;1.80;;;;;;;;;;1719863;83;21064;-70
2022/04/09 08:10:41;;;;;;;3.20;2.25;;;;;;;;;;1720116;83;21021;-70
2022/04/09 08:13:09;;;;;;;4.75;2.00;;;;;;;;;;1719739;83;21551;-70
2022/04/09 08:15:37;;;;;;;3.10;1.87;;;;;;;;;;1719772;83;21029;-70
2022/04/09 08:18:05;;;;;;;3.22;1.87;;;;;;;;;;1720053;83;21068;-70
2022/04/09 08:20:31;;;;;;;2.08;1.70;;;;;;;;;;1720054;83;21028;-70
2022/04/09 08:23:00;;;;;;;3.55;2.05;;;;;;;;;;1719900;83;21036;-70
2022/04/09 08:25:26;;;;;;;2.87;1.75;;;;;;;;;;1719756;83;21024;-71
2022/04/09 08:27:53;;;;;;;3.77;1.87;;;;;;;;;;1720085;83;21048;-70
2022/04/09 08:30:21;;;;;;;4.78;1.75;;;;;;;;;;1719784;83;21020;-71
2022/04/09 08:32:49;;;;;;;3.05;1.90;;;;;;;;;;1720118;83;21068;-70
2022/04/09 08:35:16;;;;;;;2.22;1.80;;;;;;;;;;1720279;83;20997;-71
2022/04/09 08:37:42;;;;;;;3.67;2.05;;;;;;;;;;1719958;83;21587;-70
2022/04/09 08:40:13;;;;;;;3.17;2.00;;;;;;;;;;1719926;83;21480;-70
2022/04/09 08:42:39;;;;;;;3.37;1.90;;;;;;;;;;1720106;83;21032;-71
2022/04/09 08:45:06;;;;;;;4.62;2.10;;;;;;;;;;1719961;83;21044;-71
2022/04/09 08:47:35;;;;;;;4.45;2.08;;;;;;;;;;1720131;83;21020;-70
2022/04/09 08:50:02;;;;;;;3.77;1.90;;;;;;;;;;1719624;83;20996;-70
2022/04/09 08:52:28;;;;;;;3.77;1.70;;;;;;;;;;1720001;83;21484;-71
2022/04/09 08:54:55;;;;;;;3.05;1.90;;;;;;;;;;1719546;83;21559;-70
2022/04/09 08:57:22;;;;;;;3.37;1.90;;;;;;;;;;1719792;83;21055;-71
2022/04/09 08:59:49;;;;;;;2.50;1.82;;;;;;;;;;1719894;83;21594;-71
2022/04/09 09:02:15;;;;;;;4.12;2.10;;;;;;;;;;1719859;83;21608;-71
2022/04/09 09:04:41;;;;;;;3.45;2.00;;;;;;;;;;1720049;82;21595;-71
2022/04/09 09:07:18;;;;;;;4.05;2.00;;;;;;;;;;1691474;83;21020;-71
2022/04/09 09:09:45;;;;;;;4.37;2.42;;;;;;;;;;1720060;83;21111;-71
2022/04/09 09:12:16;;;;;;;4.25;2.47;;;;;;;;;;1719748;83;21527;-71
2022/04/09 09:14:42;;;;;;;4.40;2.10;;;;;;;;;;1719197;83;21045;-70
2022/04/09 09:17:08;;;;;;;5.25;2.60;;;;;;;;;;1719323;83;21048;-71
2022/04/09 09:19:43;;;;;;;3.75;2.20;;;;;;;;;;1719776;83;21115;-71
2022/04/09 09:22:09;;;;;;;4.00;2.00;;;;;;;;;;1720091;83;21103;-72
2022/04/09 09:24:37;;;;;;;3.60;1.82;;;;;;;;;;1719730;83;21111;-71
2022/04/09 09:27:03;;;;;;;3.85;1.80;;;;;;;;;;1719832;83;21055;-71
2022/04/09 09:29:30;;;;;;;2.98;2.00;;;;;;;;;;1719781;83;21009;-71
2022/04/09 09:32:00;;;;;;;4.87;1.90;;;;;;;;;;1719697;83;21052;-71
2022/04/09 09:34:35;;;;;;;2.83;1.80;;;;;;;;;;1718998;83;21519;-72
2022/04/09 09:37:06;;;;;;;3.75;2.20;;;;;;;;;;1687211;83;21059;-72
2022/04/09 09:39:38;;;;;;;4.13;2.20;;;;;;;;;;1720042;83;21286;-72
2022/04/09 09:42:12;;;;;;;4.90;2.00;;;;;;;;;;1691908;83;21028;-72
2022/04/09 09:44:46;;;;;;;3.98;2.10;;;;;;;;;;1717439;83;21080;-71
2022/04/09 09:47:15;;;;;;;3.87;2.17;;;;;;;;;;1712222;84;21072;-71
2022/04/09 09:49:55;;;;;;;3.98;2.22;;;;;;;;;;1712364;84;21036;-71
2022/04/09 09:52:30;;;;;;;4.05;2.35;;;;;;;;;;1707350;84;21100;-72
2022/04/09 09:55:02;;;;;;;4.58;2.35;;;;;;;;;;1687073;84;21045;-71
2022/04/09 09:57:38;;;;;;;3.67;2.52;;;;;;;;;;1668607;84;21072;-71
2022/04/09 10:00:13;;;;;;;3.60;2.30;;;;;;;;;;1712419;83;21040;-71
2022/04/09 10:02:46;;;;;;;6.10;2.42;;;;;;;;;;1711924;82;21040;-70
2022/04/09 10:05:15;;;;;;;4.75;2.77;;;;;;;;;;1712430;84;21028;-69
2022/04/09 10:07:42;;;;;;;6.35;3.25;;;;;;;;;;1712376;84;21036;-70
2022/04/09 10:10:09;;;;;;;7.28;4.22;;;;;;;;;;1712470;84;20985;-70
2022/04/09 10:12:38;;;;;;;4.78;2.77;;;;;;;;;;1712440;84;20997;-70
2022/04/09 10:15:06;;;;;;;6.08;2.60;;;;;;;;;;1711877;83;21115;-71
2022/04/09 10:17:32;;;;;;;5.83;2.65;;;;;;;;;;1712281;83;21008;-70
2022/04/09 10:20:01;;;;;;;4.10;2.20;;;;;;;;;;1712089;84;21072;-71
2022/04/09 10:22:30;;;;;;;4.67;2.30;;;;;;;;;;1712379;84;21476;-70
2022/04/09 10:24:57;;;;;;;3.27;2.37;;;;;;;;;;1712283;83;21071;-70
2022/04/09 10:27:40;;;;;;;3.98;2.45;;;;;;;;;;1712469;83;21005;-71
2022/04/09 10:30:14;;;;;;;5.15;2.72;;;;;;;;;;1712341;83;21068;-71
2022/04/09 10:32:44;;;;;;;5.80;2.98;;;;;;;;;;1711991;84;21631;-71
2022/04/09 10:35:29;;;;;;;5.15;2.42;;;;;;;;;;1712356;84;21028;-71
2022/04/09 10:38:10;;;;;;;4.60;2.22;;;;;;;;;;1712340;83;21012;-71
2022/04/09 10:40:39;;;;;;;5.50;2.72;;;;;;;;;;1712124;83;21543;-71
2022/04/09 10:43:06;;;;;;;5.67;2.70;;;;;;;;;;1709900;83;21100;-71
2022/04/09 10:45:32;;;;;;;4.97;2.60;;;;;;;;;;1712368;83;21122;-71
2022/04/09 10:48:07;;;;;;;3.80;2.67;;;;;;;;;;1712131;83;21068;-71
2022/04/09 10:50:51;;;;;;;5.47;3.10;;;;;;;;;;1712308;84;21548;-71
2022/04/09 10:53:18;;;;;;;4.28;2.65;;;;;;;;;;1712207;83;21060;-70
2022/04/09 10:55:45;;;;;;;4.87;2.60;;;;;;;;;;1690402;84;21045;-70
2022/04/09 10:58:14;;;;;;;4.47;2.47;;;;;;;;;;1690749;84;22191;-71
2022/04/09 11:00:43;;;;;;;5.33;3.05;;;;;;;;;;1712212;83;21009;-70
2022/04/09 11:03:13;;;;;;;4.03;2.30;;;;;;;;;;1712023;82;21603;-71
2022/04/09 11:05:41;;;;;;;3.77;2.42;;;;;;;;;;1712536;83;21505;-71
2022/04/09 11:08:14;;;;;;;6.00;3.10;;;;;;;;;;1712140;83;21032;-71
2022/04/09 11:10:40;;;;;;;3.70;2.47;;;;;;;;;;1712501;84;21052;-71
2022/04/09 11:13:12;;;;;;;5.22;2.85;;;;;;;;;;1712191;83;21016;-71
2022/04/09 11:15:38;;;;;;;5.62;3.27;;;;;;;;;;1712102;83;21068;-71
2022/04/09 11:18:06;;;;;;;5.10;2.95;;;;;;;;;;1712379;83;21053;-70
2022/04/09 11:20:33;;;;;;;5.05;2.90;;;;;;;;;;1712118;84;21056;-71
2022/04/09 11:23:09;;;;;;;5.62;3.35;;;;;;;;;;1712364;84;21122;-73
2022/04/09 11:25:35;;;;;;;6.33;2.90;;;;;;;;;;1712126;84;21091;-72
2022/04/09 11:28:05;;;;;;;4.42;2.90;;;;;;;;;;1712521;84;21068;-71
2022/04/09 11:30:32;;;;;;;5.45;3.12;;;;;;;;;;1712401;84;21048;-72
2022/04/09 11:32:58;;;;;;;6.25;3.42;;;;;;;;;;1712075;84;21037;-72
2022/04/09 11:35:24;;;;;;;4.87;3.02;;;;;;;;;;1712390;84;21025;-72
2022/04/09 11:37:51;;;;;;;3.72;2.45;;;;;;;;;;1712332;84;21489;-71
2022/04/09 11:40:19;;;;;;;5.95;3.20;;;;;;;;;;1712468;83;21532;-71
2022/04/09 11:42:50;;;;;;;4.97;3.02;;;;;;;;;;1711818;83;21053;-72
2022/04/09 11:45:23;;;;;;;9.98;4.80;;;;;;;;;;1714372;83;21020;-71
2022/04/09 11:47:50;;;;;;;8.85;5.47;;;;;;;;;;1720051;83;21041;-72
2022/04/09 11:50:18;;;;;;;10.75;4.80;;;;;;;;;;1720017;83;21036;-71
2022/04/09 11:52:45;;;;;;;7.40;4.40;;;;;;;;;;1719957;83;21136;-70
2022/04/09 11:55:12;;;;;;;7.72;4.75;;;;;;;;;;1720140;83;21071;-72
2022/04/09 11:57:38;;;;;;;7.80;3.83;;;;;;;;;;1719653;83;21064;-72
2022/04/09 12:00:06;;;;;;;8.55;4.55;;;;;;;;;;1719808;83;21066;-71
2022/04/09 12:02:35;;;;;;;7.58;4.25;;;;;;;;;;1719262;83;21043;-71
2022/04/09 12:05:02;;;;;;;7.45;4.03;;;;;;;;;;1691647;83;21528;-70
2022/04/09 12:07:28;;;;;;;7.05;4.50;;;;;;;;;;1720042;83;21032;-71
2022/04/09 12:09:56;;;;;;;7.50;4.22;;;;;;;;;;1719735;83;21567;-72
2022/04/09 12:12:25;;;;;;;8.83;5.47;;;;;;;;;;1719729;83;21091;-71
2022/04/09 12:14:54;;;;;;;8.15;4.70;;;;;;;;;;1719894;83;21543;-71
2022/04/09 12:17:23;;;;;;;8.35;5.05;;;;;;;;;;1719930;83;21071;-72
2022/04/09 12:19:50;;;;;;;5.85;3.50;;;;;;;;;;1719755;83;21120;-71
2022/04/09 12:22:19;;;;;;;5.25;3.70;;;;;;;;;;1719894;83;21044;-71
2022/04/09 12:24:52;;;;;;;5.65;3.70;;;;;;;;;;1719700;83;21080;-72
2022/04/09 12:27:20;;;;;;;6.42;3.45;;;;;;;;;;1719917;83;21068;-70
2022/04/09 12:29:51;;;;;;;6.33;2.90;;;;;;;;;;1719997;83;21127;-71
2022/04/09 12:32:20;;;;;;;5.58;3.25;;;;;;;;;;1719891;83;21016;-71
2022/04/09 12:34:54;;;;;;;4.80;2.95;;;;;;;;;;1719940;83;21503;-71
2022/04/09 12:37:20;;;;;;;4.87;3.12;;;;;;;;;;1719909;83;21076;-71
2022/04/09 12:39:46;;;;;;;5.33;3.00;;;;;;;;;;1719840;83;21052;-72
2022/04/09 12:42:15;;;;;;;5.97;3.40;;;;;;;;;;1719949;83;20993;-71
2022/04/09 12:44:43;;;;;;;7.33;3.02;;;;;;;;;;1719900;83;21060;-71
2022/04/09 12:47:09;;;;;;;6.22;3.70;;;;;;;;;;1712403;83;21116;-71
2022/04/09 12:49:37;;;;;;;5.00;3.15;;;;;;;;;;1712375;84;21076;-70
2022/04/09 12:52:05;;;;;;;6.10;3.30;;;;;;;;;;1712280;84;21020;-71
2022/04/09 12:54:32;;;;;;;8.30;3.60;;;;;;;;;;1712236;84;21021;-70
2022/04/09 12:57:05;;;;;;;6.15;3.52;;;;;;;;;;1712430;83;21571;-70
2022/04/09 12:59:32;;;;;;;7.92;3.58;;;;;;;;;;1712638;84;21559;-70
2022/04/09 13:01:59;;;;;;;7.05;3.80;;;;;;;;;;1712363;83;21085;-71
2022/04/09 13:04:26;;;;;;;5.53;3.17;;;;;;;;;;1712176;82;21076;-70
2022/04/09 13:06:52;;;;;;;6.20;3.08;;;;;;;;;;1712472;83;21028;-71
2022/04/09 13:09:19;;;;;;;6.33;3.47;;;;;;;;;;1712126;84;21067;-71
2022/04/09 13:11:46;;;;;;;8.23;4.05;;;;;;;;;;1712420;84;21044;-71
2022/04/09 13:14:12;;;;;;;6.12;3.58;;;;;;;;;;1712213;84;21568;-70
2022/04/09 13:16:39;;;;;;;5.58;3.20;;;;;;;;;;1711964;83;21040;-71
2022/04/09 13:19:06;;;;;;;7.35;3.12;;;;;;;;;;1712387;83;21080;-71
2022/04/09 13:21:32;;;;;;;6.33;3.17;;;;;;;;;;1712062;84;21064;-70
2022/04/09 13:24:00;;;;;;;10.63;3.70;;;;;;;;;;1712529;84;21496;-69
2022/04/09 13:26:26;;;;;;;6.75;3.15;;;;;;;;;;1712129;83;21067;-70
2022/04/09 13:28:53;;;;;;;9.03;3.20;;;;;;;;;;1712065;84;21040;-70
2022/04/09 13:31:20;;;;;;;6.95;3.70;;;;;;;;;;1712255;84;20997;-71
2022/04/09 13:33:47;;;;;;;5.05;3.25;;;;;;;;;;1712124;84;21029;-70
2022/04/09 13:36:13;;;;;;;5.55;3.70;;;;;;;;;;1712234;84;21041;-71
2022/04/09 13:38:39;;;;;;;5.80;3.30;;;;;;;;;;1712072;84;21060;-71
2022/04/09 13:41:06;;;;;;;7.08;3.75;;;;;;;;;;1712102;84;20993;-70
2022/04/09 13:43:33;;;;;;;5.80;3.30;;;;;;;;;;1712287;83;21036;-70
2022/04/09 13:45:59;;;;;;;7.10;3.05;;;;;;;;;;1712250;83;21075;-70
2022/04/09 13:48:25;;;;;;;5.40;2.60;;;;;;;;;;1712012;83;21040;-70
2022/04/09 13:50:52;;;;;;;4.80;3.10;;;;;;;;;;1712076;83;21348;-71
2022/04/09 13:53:19;;;;;;;6.67;3.77;;;;;;;;;;1711876;83;21586;-70
2022/04/09 13:55:46;;;;;;;5.65;3.40;;;;;;;;;;1712025;83;21009;-70
2022/04/09 14:00:59;;;;;;;5.50;3.27;;;;;;;;;;1802074;79;22563;-72
2022/04/09 14:03:25;;;;;;;5.25;3.65;;;;;;;;;;1751047;81;21691;-71
2022/04/09 14:05:51;;;;;;;4.90;2.77;;;;;;;;;;1729901;82;21639;-71
2022/04/09 14:08:18;;;;;;;6.15;3.77;;;;;;;;;;1729873;83;21085;-71
2022/04/09 14:10:45;;;;;;;9.13;4.17;;;;;;;;;;1730270;83;21064;-71
2022/04/09 14:13:11;;;;;;;7.55;3.60;;;;;;;;;;1730032;83;21076;-71
2022/04/09 14:15:37;;;;;;;6.83;4.15;;;;;;;;;;1730070;82;21080;-70
2022/04/09 14:18:04;;;;;;;6.17;3.37;;;;;;;;;;1730322;83;21049;-71
2022/04/09 14:20:30;;;;;;;7.53;3.60;;;;;;;;;;1730056;82;21009;-71
2022/04/09 14:22:57;;;;;;;6.67;3.92;;;;;;;;;;1730220;83;21061;-71
2022/04/09 14:25:24;;;;;;;7.00;3.50;;;;;;;;;;1729928;82;21112;-72
2022/04/09 14:27:50;;;;;;;7.60;3.70;;;;;;;;;;1730180;83;21088;-71
2022/04/09 14:30:16;;;;;;;7.60;3.70;;;;;;;;;;1730009;82;21068;-71
2022/04/09 14:32:42;;;;;;;7.00;3.50;;;;;;;;;;1730028;82;21009;-70
2022/04/09 14:35:10;;;;;;;8.13;3.87;;;;;;;;;;1730255;82;21148;-71
2022/04/09 14:37:37;;;;;;;7.78;3.60;;;;;;;;;;1730050;83;21120;-70
2022/04/09 14:40:04;;;;;;;11.93;6.97;;;;;;;;;;1730370;82;21076;-71
2022/04/09 14:42:30;;;;;;;13.83;6.15;;;;;;;;;;1730058;82;21156;-71
2022/04/09 14:44:57;;;;;;;11.70;6.75;;;;;;;;;;1730036;82;21102;-71
2022/04/09 14:47:24;;;;;;;13.55;6.58;;;;;;;;;;1729999;82;21044;-71
2022/04/09 14:49:51;;;;;;;14.75;6.28;;;;;;;;;;1730132;83;21013;-71
2022/04/09 14:52:18;;;;;;;13.03;6.97;;;;;;;;;;1730053;82;21044;-71
2022/04/09 14:54:45;;;;;;;13.03;6.95;;;;;;;;;;1729958;83;21056;-70